Акимовка

Карта отелей и гостиниц, располагающихся рядом с аэропортом Акимовка :

Акимовка Запорожская область 46° 42' 35.1" N, 35° 8' 43.0188" E
Акимовка Запорожская область 46° 42' 35.1" N, 35° 8' 43.0188" E
Код аэродрома ИКАО
UPKM
Код аэродрома RU
УПКМ
Координаты
N46.70975° E035.14528°
Превышение над уровнем моря
24
Основная полоса
05/23
Курс магнитный
046/226
Длина основной ВПП
400
Ширина основной ВПП
20
Покрытие основной ВПП
Твёрдое
Освещение ВПП
Нет
Тип: 
Аэродром
Класс аэродрома: 
Принадлежность: 
ГА
Статус: 
Недействующий
Сайт: 
E-mail аэродрома: 
Страна: 
Украина
Регион: 
Запорожская область
Город: 
Дополнительная информация: 
Площадка АХР.

Найти трансфер

С помощью этой формы Вы можете найти трансфер из аэропорта Акимовка в город, аэропорт или вокзал:

Карта места

Javascript is required to view this map.

Погода в аэропортах:

Авиационная погода в Караганде

Регион: 
Погода METAR: 
UAKK 280940Z 26009G14MPS 9999 -SHRA SCT016CB 11/10 Q1009 R23/2///60 NOSIG RMK QFE711/0948
Время наблюдения
2021-09-28T09:40:00Z
Температура C
11.0
Точка росы
10.0
Направление ветра
260
Скорость ветра (узлы)
17
Метео видимость
6.21
Явления погоды
-SHRA
Условия полета
VFR
Аэропорт подробнее: 

Авиационная погода в Нальчике

Регион: 
Погода METAR: 
URMN 281200Z 05003MPS 9999 -SHRA BKN022CB 14/09 Q1018 R24/110060 NOSIG RMK QFE727
Время наблюдения
2021-09-28T12:00:00Z
Температура C
14.0
Точка росы
9.0
Направление ветра
50
Скорость ветра (узлы)
6
Метео видимость
6.21
Явления погоды
-SHRA
Условия полета
MVFR
Аэропорт подробнее: 

Авиационная погода в Костанае

Регион: 
Погода METAR: 
UAUU 281200Z 04009G15MPS 9999 -RA BKN011 OVC033 04/03 Q1011 R33/290160 NOSIG RMK QFE742/0990
Время наблюдения
2021-09-28T12:00:00Z
Температура C
4.0
Точка росы
3.0
Направление ветра
40
Скорость ветра (узлы)
17
Метео видимость
6.21
Явления погоды
-RA
Условия полета
MVFR
Аэропорт подробнее: 

Авиационная погода в Магнитогорске

Погода METAR: 
USCM 281200Z 03010MPS 4500 -SHRA BR OVC010CB 02/02 Q1016 R36/290055 TEMPO 02015MPS 1200 SHSNRA BR VV004 RMK QFE724
Время наблюдения
2021-09-28T12:00:00Z
Температура C
2.0
Точка росы
2.0
Направление ветра
30
Скорость ветра (узлы)
19
Метео видимость
2.8
Явления погоды
-SHRA BR
Условия полета
IFR
Аэропорт подробнее: